createdAt,value
2024-04-05T00:00:03.566Z,1003.03656
2024-04-05T00:05:02.839Z,1003.069519
2024-04-05T00:10:03.103Z,1003.024231
2024-04-05T00:15:02.618Z,1003.014526
2024-04-05T00:20:02.938Z,1003.091492
2024-04-05T00:25:02.518Z,1003.082825
2024-04-05T00:30:02.859Z,1003.123779
2024-04-05T00:35:03.207Z,1003.113037
2024-04-05T00:40:02.429Z,1003.073303
2024-04-05T00:45:02.659Z,1003.095154
2024-04-05T00:50:02.944Z,1003.122009
2024-04-05T00:55:02.168Z,1003.100342
2024-04-05T01:00:02.511Z,1003.172607
2024-04-05T01:05:02.760Z,1003.174072
2024-04-05T01:10:04.109Z,1003.17627
2024-04-05T01:15:02.592Z,1003.156433
2024-04-05T01:20:02.904Z,1003.086731
2024-04-05T01:25:02.135Z,1003.104248
2024-04-05T01:30:02.363Z,1003.043274
2024-04-05T01:35:03.751Z,1003.063721
2024-04-05T01:40:03.134Z,1002.994202
2024-04-05T01:45:02.411Z,1003.009399
2024-04-05T01:50:03.516Z,1003.031067
2024-04-05T01:55:02.850Z,1002.973999
2024-04-05T02:00:03.871Z,1003.063721
2024-04-05T02:05:03.876Z,1002.99292
2024-04-05T02:10:02.170Z,1002.965149
2024-04-05T02:15:02.508Z,1002.895264
2024-04-05T02:20:02.847Z,1002.922363
2024-04-05T02:25:03.092Z,1002.967529
2024-04-05T02:30:02.397Z,1003.089661
2024-04-05T02:35:02.710Z,1003.132507
2024-04-05T02:40:02.960Z,1003.273438
2024-04-05T02:45:02.927Z,1003.244995
2024-04-05T02:50:02.819Z,1003.207031
2024-04-05T02:55:03.184Z,1003.174072
2024-04-05T03:00:02.913Z,1003.219971
2024-04-05T03:05:02.228Z,1003.208923
2024-04-05T03:10:02.484Z,1003.279541
2024-04-05T03:15:04.022Z,1003.311035
2024-04-05T03:20:02.356Z,1003.400574
2024-04-05T03:25:02.701Z,1003.379517
2024-04-05T03:30:04.363Z,1003.408752
2024-04-05T03:35:02.885Z,1003.391541
2024-04-05T03:40:02.304Z,1003.263611
2024-04-05T03:45:02.661Z,1003.159363
2024-04-05T03:50:03.043Z,1003.15155
2024-04-05T03:55:03.037Z,1003.271301
2024-04-05T04:00:02.362Z,1003.252014
2024-04-05T04:05:02.749Z,1003.211426
2024-04-05T04:10:03.993Z,1003.187988
2024-04-05T04:15:02.300Z,1003.128601
2024-04-05T04:20:02.613Z,1003.223145
2024-04-05T04:25:03.000Z,1003.403259
2024-04-05T04:30:02.317Z,1003.358765
2024-04-05T04:35:02.679Z,1003.397522
2024-04-05T04:40:03.065Z,1003.436035
2024-04-05T04:45:02.350Z,1003.416565
2024-04-05T04:50:02.803Z,1003.533936
2024-04-05T04:55:03.057Z,1003.449036
2024-04-05T05:00:02.294Z,1003.42218
2024-04-05T05:05:02.917Z,1003.461243
2024-04-05T05:10:02.180Z,1003.347168
2024-04-05T05:15:02.445Z,1003.412354
2024-04-05T05:20:02.844Z,1003.394897
2024-04-05T05:25:03.099Z,1003.500305
2024-04-05T05:30:02.359Z,1003.486877
2024-04-05T05:35:02.661Z,1003.641357
2024-04-05T05:40:02.969Z,1003.674072
2024-04-05T05:45:02.268Z,1003.745911
2024-04-05T05:50:02.583Z,1003.742371
2024-04-05T05:55:02.889Z,1003.699707
2024-04-05T06:00:02.758Z,1003.721252
2024-04-05T06:05:03.075Z,1003.606018
2024-04-05T06:10:02.302Z,1003.47876
2024-04-05T06:15:03.426Z,1003.391846
2024-04-05T06:20:02.940Z,1003.279053
2024-04-05T06:25:02.175Z,1003.079468
2024-04-05T06:30:02.407Z,1002.940308
2024-04-05T06:35:03.502Z,1003.035767
2024-04-05T06:40:03.993Z,1003.290466
2024-04-05T06:45:03.124Z,1003.171509
2024-04-05T06:50:02.432Z,1003.139709
2024-04-05T06:55:03.641Z,1003.394348
2024-04-05T07:00:03.809Z,1003.428894
2024-04-05T07:05:03.080Z,1003.440491
2024-04-05T07:10:02.361Z,1003.244385
2024-04-05T07:15:02.686Z,1003.157349
2024-04-05T07:20:03.118Z,1003.041748
2024-04-05T07:25:03.579Z,1002.869202
2024-04-05T07:30:03.083Z,1002.530884
2024-04-05T07:35:02.394Z,1002.594666
2024-04-05T07:40:03.862Z,1002.544434
2024-04-05T07:45:03.526Z,1002.429382
2024-04-05T07:50:02.832Z,1002.412048
2024-04-05T07:55:04.754Z,1002.446716
2024-04-05T08:00:03.160Z,1002.373047
2024-04-05T08:05:03.443Z,1002.278259
2024-04-05T08:10:02.688Z,1002.362488
2024-04-05T08:15:03.726Z,1002.330322
2024-04-05T08:20:04.264Z,1002.31842
2024-04-05T08:25:03.938Z,1002.12146
2024-04-05T08:30:02.271Z,1001.911377
2024-04-05T08:35:02.554Z,1001.907349
2024-04-05T08:40:04.259Z,1001.827942
2024-04-05T08:45:03.872Z,1001.913757
2024-04-05T08:50:02.223Z,1002.001404
2024-04-05T08:55:02.538Z,1001.886108
2024-04-05T09:00:02.759Z,1001.77655
2024-04-05T09:05:03.107Z,1001.750916
2024-04-05T09:10:03.180Z,1001.696533
2024-04-05T09:15:02.484Z,1001.627197
2024-04-05T09:20:02.750Z,1001.421387
2024-04-05T09:25:03.050Z,1001.42157
2024-04-05T09:30:02.307Z,1001.404907
2024-04-05T09:35:02.646Z,1001.317322
2024-04-05T09:40:04.540Z,1001.226074
2024-04-05T09:45:02.919Z,1001.418274
2024-04-05T09:50:02.562Z,1001.329041
2024-04-05T09:55:02.845Z,1001.212952
2024-04-05T10:00:04.324Z,1001.016235
2024-04-05T10:05:04.232Z,1000.682983
2024-04-05T10:10:02.471Z,1000.803772
2024-04-05T10:15:04.184Z,1000.444092
2024-04-05T10:20:03.777Z,1000.358887
2024-04-05T10:25:03.035Z,1000.301086
2024-04-05T10:30:03.515Z,1000.141846
2024-04-05T10:35:02.958Z,999.9682617
2024-04-05T10:40:02.302Z,999.9395142
2024-04-05T10:45:02.871Z,1000.04657
2024-04-05T10:50:02.235Z,999.8126831
2024-04-05T10:55:02.604Z,1000.310547
2024-04-05T11:00:02.872Z,1000.906006
2024-04-05T11:05:03.175Z,1000.992554
2024-04-05T11:10:06.621Z,1001.028442
2024-04-05T11:15:04.043Z,1001.136414
2024-04-05T11:20:02.526Z,1001.05658
2024-04-05T11:25:02.867Z,1001.020691
2024-04-05T11:30:04.293Z,1000.910706
2024-04-05T11:35:03.188Z,1000.946655
2024-04-05T11:40:03.845Z,1000.826538
2024-04-05T11:45:03.131Z,1000.296875
2024-04-05T11:50:03.450Z,1000.064636
2024-04-05T11:55:02.740Z,1000.125793
2024-04-05T12:00:03.298Z,999.9992065
2024-04-05T12:05:03.773Z,1000.01709
2024-04-05T12:10:03.216Z,1000.142029
2024-04-05T12:15:02.472Z,1000.015442
2024-04-05T12:20:02.979Z,1000.067627
2024-04-05T12:25:02.370Z,999.9916992
2024-04-05T12:30:02.624Z,1000.128906
2024-04-05T12:35:03.134Z,1000.315491
2024-04-05T12:40:02.490Z,1000.228271
2024-04-05T12:45:02.715Z,1000.229614
2024-04-05T12:50:03.034Z,1000.245178
2024-04-05T12:55:02.294Z,1000.173767
2024-04-05T13:00:02.742Z,1000.133362
2024-04-05T13:05:03.060Z,999.991394
2024-04-05T13:10:02.340Z,999.8143921
2024-04-05T13:15:02.685Z,999.6898193
2024-04-05T13:20:02.979Z,999.6209106
2024-04-05T13:25:02.284Z,999.7861938
2024-04-05T13:30:02.638Z,999.7973633
2024-04-05T13:35:03.231Z,999.9441528
2024-04-05T13:40:02.537Z,999.822998
2024-04-05T13:45:02.809Z,999.9483643
2024-04-05T13:50:03.129Z,1000.165771
2024-04-05T13:55:02.439Z,1000.044373
2024-04-05T14:00:02.785Z,1000.129822
2024-04-05T14:05:03.067Z,999.9821777
2024-04-05T14:10:02.364Z,999.9866943
2024-04-05T14:15:02.573Z,999.9813843
2024-04-05T14:20:02.974Z,1000.043884
2024-04-05T14:25:02.459Z,999.914917
2024-04-05T14:30:02.880Z,1000.074524
2024-04-05T14:35:02.188Z,1000.304749
2024-04-05T14:40:02.636Z,1000.426392
2024-04-05T14:45:02.952Z,1000.364441
2024-04-05T14:50:02.200Z,1000.506104
2024-04-05T14:55:02.572Z,1000.419617
2024-04-05T15:00:02.757Z,1000.458435
2024-04-05T15:05:03.019Z,1000.535889
2024-04-05T15:10:02.330Z,1000.497498
2024-04-05T15:15:02.711Z,1000.669373
2024-04-05T15:20:03.091Z,1000.859558
2024-04-05T15:25:02.440Z,1000.907837
2024-04-05T15:30:02.718Z,1000.977905
2024-04-05T15:35:02.946Z,1001.114075
2024-04-05T15:40:02.229Z,1001.044373
2024-04-05T15:45:02.552Z,1001.13147
2024-04-05T15:50:02.870Z,1001.032043
2024-04-05T15:55:02.199Z,1001.25592
2024-04-05T16:00:02.432Z,1001.144226
2024-04-05T16:05:02.744Z,1001.157654
2024-04-05T16:10:03.090Z,1001.29718
2024-04-05T16:15:03.482Z,1001.391541
2024-04-05T16:20:02.888Z,1001.477722
2024-04-05T16:25:02.278Z,1001.639526
2024-04-05T16:30:02.659Z,1001.740173
2024-04-05T16:35:02.994Z,1001.837524
2024-04-05T16:40:02.271Z,1001.859985
2024-04-05T16:45:02.547Z,1001.888123
2024-04-05T16:50:02.805Z,1001.925537
2024-04-05T16:55:03.060Z,1002.020325
2024-04-05T17:00:02.333Z,1002.080261
2024-04-05T17:05:02.613Z,1002.034668
2024-04-05T17:10:02.871Z,1002.158447
2024-04-05T17:15:03.113Z,1002.179749
2024-04-05T17:20:02.436Z,1002.201355
2024-04-05T17:25:02.699Z,1002.243408
2024-04-05T17:30:02.954Z,1002.276428
2024-04-05T17:35:02.285Z,1002.30603
2024-04-05T17:40:02.595Z,1002.380493
2024-04-05T17:45:02.845Z,1002.355469
2024-04-05T17:50:03.208Z,1002.390137
2024-04-05T17:55:02.429Z,1002.556885
2024-04-05T18:00:02.771Z,1002.469849
2024-04-05T18:05:03.041Z,1002.422974
2024-04-05T18:10:02.264Z,1002.570862
2024-04-05T18:15:02.690Z,1002.716064
2024-04-05T18:20:05.318Z,1002.670288
2024-04-05T18:25:02.774Z,1002.77002
2024-04-05T18:30:03.143Z,1003.018921
2024-04-05T18:35:02.369Z,1002.994446
2024-04-05T18:40:02.662Z,1003.152832
2024-04-05T18:45:03.085Z,1003.273132
2024-04-05T18:50:02.375Z,1003.24408
2024-04-05T18:55:02.753Z,1003.402527
2024-04-05T19:00:03.106Z,1003.426514
2024-04-05T19:05:02.453Z,1003.493408
2024-04-05T19:10:02.857Z,1003.585022
2024-04-05T19:15:03.176Z,1003.743652
2024-04-05T19:20:02.626Z,1003.763611
2024-04-05T19:25:03.552Z,1003.749146
2024-04-05T19:30:02.939Z,1003.83728
2024-04-05T19:35:02.431Z,1003.888916
2024-04-05T19:40:02.739Z,1003.935913
2024-04-05T19:45:03.036Z,1003.99939
2024-04-05T19:50:03.786Z,1003.92749
2024-04-05T19:55:02.318Z,1004.069824
2024-04-05T20:00:02.677Z,1004.089233
2024-04-05T20:05:03.005Z,1004.154541
2024-04-05T20:10:02.397Z,1004.196777
2024-04-05T20:15:02.776Z,1004.179688
2024-04-05T20:20:03.364Z,1004.311584
2024-04-05T20:25:02.713Z,1004.325439
2024-04-05T20:30:03.032Z,1004.283752
2024-04-05T20:35:02.405Z,1004.350952
2024-04-05T20:40:02.736Z,1004.364868
2024-04-05T20:45:03.060Z,1004.369324
2024-04-05T20:50:02.365Z,1004.447266
2024-04-05T20:55:02.721Z,1004.45874
2024-04-05T21:00:02.975Z,1004.425232
2024-04-05T21:05:02.341Z,1004.441895
2024-04-05T21:10:02.597Z,1004.433289
2024-04-05T21:15:02.914Z,1004.436401
2024-04-05T21:20:05.984Z,1004.513428
2024-04-05T21:25:02.819Z,1004.598877
2024-04-05T21:30:03.108Z,1004.513916
2024-04-05T21:35:02.366Z,1004.582397
2024-04-05T21:40:02.717Z,1004.568359
2024-04-05T21:45:03.039Z,1004.629089
2024-04-05T21:50:02.556Z,1004.666321
2024-04-05T21:55:02.949Z,1004.677795
2024-04-05T22:00:02.370Z,1004.746948
2024-04-05T22:05:02.800Z,1004.729614
2024-04-05T22:10:03.049Z,1004.641846
2024-04-05T22:15:02.368Z,1004.627991
2024-04-05T22:20:02.693Z,1004.56427
2024-04-05T22:25:03.002Z,1004.604248
2024-04-05T22:30:02.282Z,1004.602783
2024-04-05T22:35:02.901Z,1004.713196
2024-04-05T22:40:02.223Z,1004.835876
2024-04-05T22:45:02.490Z,1004.895752
2024-04-05T22:50:02.787Z,1004.962646
2024-04-05T22:55:03.033Z,1004.961121
2024-04-05T23:00:02.354Z,1004.961487
2024-04-05T23:05:02.790Z,1004.912964
2024-04-05T23:10:03.808Z,1005.026611
2024-04-05T23:15:03.064Z,1005.11969
2024-04-05T23:20:02.455Z,1005.134399
2024-04-05T23:25:03.016Z,1005.101257
2024-04-05T23:30:02.230Z,1005.082947
2024-04-05T23:35:02.556Z,1005.103516
2024-04-05T23:40:02.933Z,1005.137634
2024-04-05T23:45:02.245Z,1005.13031
2024-04-05T23:50:02.648Z,1005.193848
2024-04-05T23:55:02.888Z,1005.283447
